sensor_id;sensor_type;location;lat;lon;timestamp;P1;durP1;ratioP1;P2;durP2;ratioP2
6751;SDS011;3413;47.680;9.166;2023-07-13T00:04:38;3.30;;;1.63;;
6751;SDS011;3413;47.680;9.166;2023-07-13T00:09:40;5.70;;;2.23;;
6751;SDS011;3413;47.680;9.166;2023-07-13T00:14:42;3.80;;;1.80;;
6751;SDS011;3413;47.680;9.166;2023-07-13T00:19:44;2.93;;;1.73;;
6751;SDS011;3413;47.680;9.166;2023-07-13T00:24:47;4.97;;;2.17;;
6751;SDS011;3413;47.680;9.166;2023-07-13T00:29:49;13.20;;;2.60;;
6751;SDS011;3413;47.680;9.166;2023-07-13T00:34:52;4.00;;;2.10;;
6751;SDS011;3413;47.680;9.166;2023-07-13T00:39:54;4.50;;;2.00;;
6751;SDS011;3413;47.680;9.166;2023-07-13T00:50:21;3.90;;;1.53;;
6751;SDS011;3413;47.680;9.166;2023-07-13T00:55:26;4.90;;;2.10;;
6751;SDS011;3413;47.680;9.166;2023-07-13T01:00:29;3.13;;;1.90;;
6751;SDS011;3413;47.680;9.166;2023-07-13T01:05:32;8.10;;;1.63;;
6751;SDS011;3413;47.680;9.166;2023-07-13T01:10:35;3.10;;;1.60;;
6751;SDS011;3413;47.680;9.166;2023-07-13T01:15:42;2.77;;;1.47;;
6751;SDS011;3413;47.680;9.166;2023-07-13T01:20:56;5.37;;;2.00;;
6751;SDS011;3413;47.680;9.166;2023-07-13T01:26:02;5.33;;;2.00;;
6751;SDS011;3413;47.680;9.166;2023-07-13T01:31:04;3.87;;;2.17;;
6751;SDS011;3413;47.680;9.166;2023-07-13T01:36:07;5.03;;;2.10;;
6751;SDS011;3413;47.680;9.166;2023-07-13T01:41:11;6.03;;;1.70;;
6751;SDS011;3413;47.680;9.166;2023-07-13T01:46:14;10.30;;;2.20;;
6751;SDS011;3413;47.680;9.166;2023-07-13T01:51:19;3.17;;;1.60;;
6751;SDS011;3413;47.680;9.166;2023-07-13T01:56:22;3.73;;;1.73;;
6751;SDS011;3413;47.680;9.166;2023-07-13T02:01:24;3.40;;;1.83;;
6751;SDS011;3413;47.680;9.166;2023-07-13T02:06:28;4.13;;;1.57;;
6751;SDS011;3413;47.680;9.166;2023-07-13T02:11:30;7.73;;;1.80;;
6751;SDS011;3413;47.680;9.166;2023-07-13T02:16:34;3.17;;;1.50;;
6751;SDS011;3413;47.680;9.166;2023-07-13T02:21:36;3.80;;;1.70;;
6751;SDS011;3413;47.680;9.166;2023-07-13T02:26:38;5.67;;;2.00;;
6751;SDS011;3413;47.680;9.166;2023-07-13T02:31:40;6.23;;;1.90;;
6751;SDS011;3413;47.680;9.166;2023-07-13T02:36:42;4.40;;;1.63;;
6751;SDS011;3413;47.680;9.166;2023-07-13T02:41:44;3.97;;;1.80;;
6751;SDS011;3413;47.680;9.166;2023-07-13T02:46:47;6.90;;;1.93;;
6751;SDS011;3413;47.680;9.166;2023-07-13T02:51:51;3.80;;;2.10;;
6751;SDS011;3413;47.680;9.166;2023-07-13T02:56:53;6.43;;;2.00;;
6751;SDS011;3413;47.680;9.166;2023-07-13T03:01:55;4.40;;;1.50;;
6751;SDS011;3413;47.680;9.166;2023-07-13T03:06:57;8.10;;;2.03;;
6751;SDS011;3413;47.680;9.166;2023-07-13T03:12:08;3.03;;;1.63;;
6751;SDS011;3413;47.680;9.166;2023-07-13T03:17:10;5.83;;;2.07;;
6751;SDS011;3413;47.680;9.166;2023-07-13T03:22:16;4.77;;;1.93;;
6751;SDS011;3413;47.680;9.166;2023-07-13T03:27:18;8.13;;;1.77;;
6751;SDS011;3413;47.680;9.166;2023-07-13T03:32:22;7.37;;;2.07;;
6751;SDS011;3413;47.680;9.166;2023-07-13T03:37:24;2.90;;;1.63;;
6751;SDS011;3413;47.680;9.166;2023-07-13T03:42:26;7.40;;;2.10;;
6751;SDS011;3413;47.680;9.166;2023-07-13T03:47:28;3.83;;;1.70;;
6751;SDS011;3413;47.680;9.166;2023-07-13T03:52:31;4.43;;;1.77;;
6751;SDS011;3413;47.680;9.166;2023-07-13T03:57:33;3.53;;;1.60;;
6751;SDS011;3413;47.680;9.166;2023-07-13T04:02:39;6.50;;;2.70;;
6751;SDS011;3413;47.680;9.166;2023-07-13T04:07:42;4.13;;;2.03;;
6751;SDS011;3413;47.680;9.166;2023-07-13T04:12:44;3.73;;;1.47;;
6751;SDS011;3413;47.680;9.166;2023-07-13T04:17:46;3.97;;;1.97;;
6751;SDS011;3413;47.680;9.166;2023-07-13T04:22:48;6.63;;;1.53;;
6751;SDS011;3413;47.680;9.166;2023-07-13T04:27:51;3.17;;;1.60;;
6751;SDS011;3413;47.680;9.166;2023-07-13T04:32:53;3.30;;;1.87;;
6751;SDS011;3413;47.680;9.166;2023-07-13T04:37:55;3.70;;;1.83;;
6751;SDS011;3413;47.680;9.166;2023-07-13T04:42:57;5.13;;;2.20;;
6751;SDS011;3413;47.680;9.166;2023-07-13T04:47:59;4.33;;;2.10;;
6751;SDS011;3413;47.680;9.166;2023-07-13T04:53:01;4.93;;;2.23;;
6751;SDS011;3413;47.680;9.166;2023-07-13T04:58:04;5.43;;;1.97;;
6751;SDS011;3413;47.680;9.166;2023-07-13T05:03:06;4.80;;;2.33;;
6751;SDS011;3413;47.680;9.166;2023-07-13T05:08:08;6.30;;;1.97;;
6751;SDS011;3413;47.680;9.166;2023-07-13T05:13:10;3.40;;;2.00;;
6751;SDS011;3413;47.680;9.166;2023-07-13T05:18:12;4.93;;;2.03;;
6751;SDS011;3413;47.680;9.166;2023-07-13T05:23:14;3.53;;;1.50;;
6751;SDS011;3413;47.680;9.166;2023-07-13T05:28:16;4.20;;;1.83;;
6751;SDS011;3413;47.680;9.166;2023-07-13T05:33:18;4.53;;;2.10;;
6751;SDS011;3413;47.680;9.166;2023-07-13T05:38:20;5.07;;;1.77;;
6751;SDS011;3413;47.680;9.166;2023-07-13T05:43:22;4.83;;;1.87;;
6751;SDS011;3413;47.680;9.166;2023-07-13T05:48:25;4.40;;;2.10;;
6751;SDS011;3413;47.680;9.166;2023-07-13T05:53:27;3.60;;;1.80;;
6751;SDS011;3413;47.680;9.166;2023-07-13T05:58:28;4.13;;;1.90;;
6751;SDS011;3413;47.680;9.166;2023-07-13T06:03:30;3.33;;;1.77;;
6751;SDS011;3413;47.680;9.166;2023-07-13T06:08:33;3.23;;;1.70;;
6751;SDS011;3413;47.680;9.166;2023-07-13T06:13:35;4.97;;;2.20;;
6751;SDS011;3413;47.680;9.166;2023-07-13T06:18:37;5.57;;;1.93;;
6751;SDS011;3413;47.680;9.166;2023-07-13T06:23:40;6.07;;;1.83;;
6751;SDS011;3413;47.680;9.166;2023-07-13T06:28:42;3.10;;;1.80;;
6751;SDS011;3413;47.680;9.166;2023-07-13T06:33:44;8.10;;;2.00;;
6751;SDS011;3413;47.680;9.166;2023-07-13T06:38:46;4.70;;;1.60;;
6751;SDS011;3413;47.680;9.166;2023-07-13T06:43:48;9.43;;;1.70;;
6751;SDS011;3413;47.680;9.166;2023-07-13T06:48:50;7.60;;;1.70;;
6751;SDS011;3413;47.680;9.166;2023-07-13T06:53:52;4.33;;;1.40;;
6751;SDS011;3413;47.680;9.166;2023-07-13T06:58:54;3.27;;;1.57;;
6751;SDS011;3413;47.680;9.166;2023-07-13T07:03:56;3.97;;;1.90;;
6751;SDS011;3413;47.680;9.166;2023-07-13T07:08:58;7.03;;;1.63;;
6751;SDS011;3413;47.680;9.166;2023-07-13T07:14:00;5.23;;;1.50;;
6751;SDS011;3413;47.680;9.166;2023-07-13T07:19:02;2.27;;;1.10;;
6751;SDS011;3413;47.680;9.166;2023-07-13T07:24:04;5.87;;;1.40;;
6751;SDS011;3413;47.680;9.166;2023-07-13T07:29:06;5.00;;;1.40;;
6751;SDS011;3413;47.680;9.166;2023-07-13T07:34:11;3.50;;;1.43;;
6751;SDS011;3413;47.680;9.166;2023-07-13T07:39:13;7.23;;;1.20;;
6751;SDS011;3413;47.680;9.166;2023-07-13T07:44:15;8.23;;;1.63;;
6751;SDS011;3413;47.680;9.166;2023-07-13T07:49:17;6.40;;;2.20;;
6751;SDS011;3413;47.680;9.166;2023-07-13T07:54:19;3.83;;;1.47;;
6751;SDS011;3413;47.680;9.166;2023-07-13T07:59:41;4.70;;;1.80;;
6751;SDS011;3413;47.680;9.166;2023-07-13T08:04:45;5.43;;;1.63;;
6751;SDS011;3413;47.680;9.166;2023-07-13T08:09:53;2.97;;;1.30;;
6751;SDS011;3413;47.680;9.166;2023-07-13T08:14:55;4.30;;;1.67;;
6751;SDS011;3413;47.680;9.166;2023-07-13T08:20:02;2.13;;;1.20;;
6751;SDS011;3413;47.680;9.166;2023-07-13T08:25:04;3.23;;;1.50;;
6751;SDS011;3413;47.680;9.166;2023-07-13T08:30:06;2.93;;;1.40;;
6751;SDS011;3413;47.680;9.166;2023-07-13T08:35:09;5.33;;;1.50;;
6751;SDS011;3413;47.680;9.166;2023-07-13T08:40:11;3.97;;;1.40;;
6751;SDS011;3413;47.680;9.166;2023-07-13T08:50:49;3.20;;;1.33;;
6751;SDS011;3413;47.680;9.166;2023-07-13T08:56:18;3.57;;;1.70;;
6751;SDS011;3413;47.680;9.166;2023-07-13T09:06:55;9.10;;;1.50;;
6751;SDS011;3413;47.680;9.166;2023-07-13T09:12:26;3.60;;;1.40;;
6751;SDS011;3413;47.680;9.166;2023-07-13T09:17:46;1.73;;;1.10;;
6751;SDS011;3413;47.680;9.166;2023-07-13T09:22:51;3.70;;;1.27;;
6751;SDS011;3413;47.680;9.166;2023-07-13T09:27:55;2.27;;;1.30;;
6751;SDS011;3413;47.680;9.166;2023-07-13T09:33:01;11.27;;;1.20;;
6751;SDS011;3413;47.680;9.166;2023-07-13T09:38:24;2.83;;;1.23;;
6751;SDS011;3413;47.680;9.166;2023-07-13T09:43:27;4.73;;;1.43;;
6751;SDS011;3413;47.680;9.166;2023-07-13T09:48:35;1.60;;;0.90;;
6751;SDS011;3413;47.680;9.166;2023-07-13T09:53:38;6.90;;;1.10;;
6751;SDS011;3413;47.680;9.166;2023-07-13T09:58:42;4.63;;;1.20;;
6751;SDS011;3413;47.680;9.166;2023-07-13T10:03:54;4.10;;;1.10;;
6751;SDS011;3413;47.680;9.166;2023-07-13T10:08:56;2.07;;;1.10;;
6751;SDS011;3413;47.680;9.166;2023-07-13T10:14:00;2.57;;;1.27;;
6751;SDS011;3413;47.680;9.166;2023-07-13T10:19:25;2.20;;;1.00;;
6751;SDS011;3413;47.680;9.166;2023-07-13T10:24:32;2.47;;;1.20;;
6751;SDS011;3413;47.680;9.166;2023-07-13T10:29:43;2.93;;;1.20;;
6751;SDS011;3413;47.680;9.166;2023-07-13T10:35:00;2.70;;;0.90;;
6751;SDS011;3413;47.680;9.166;2023-07-13T10:40:04;5.73;;;1.40;;
6751;SDS011;3413;47.680;9.166;2023-07-13T10:45:17;5.50;;;1.10;;
6751;SDS011;3413;47.680;9.166;2023-07-13T10:50:22;4.37;;;1.10;;
6751;SDS011;3413;47.680;9.166;2023-07-13T10:55:33;5.17;;;1.07;;
6751;SDS011;3413;47.680;9.166;2023-07-13T11:00:49;2.27;;;1.00;;
6751;SDS011;3413;47.680;9.166;2023-07-13T11:06:15;4.40;;;1.23;;
6751;SDS011;3413;47.680;9.166;2023-07-13T11:11:35;1.60;;;1.10;;
6751;SDS011;3413;47.680;9.166;2023-07-13T11:16:43;3.77;;;1.47;;
6751;SDS011;3413;47.680;9.166;2023-07-13T11:22:22;12.70;;;1.70;;
6751;SDS011;3413;47.680;9.166;2023-07-13T11:27:34;2.10;;;1.30;;
6751;SDS011;3413;47.680;9.166;2023-07-13T11:32:38;1.67;;;1.10;;
6751;SDS011;3413;47.680;9.166;2023-07-13T11:37:40;3.47;;;1.30;;
6751;SDS011;3413;47.680;9.166;2023-07-13T11:42:42;2.53;;;1.07;;
6751;SDS011;3413;47.680;9.166;2023-07-13T11:47:44;2.17;;;1.23;;
6751;SDS011;3413;47.680;9.166;2023-07-13T11:52:47;3.20;;;1.40;;
6751;SDS011;3413;47.680;9.166;2023-07-13T11:57:53;2.47;;;1.20;;
6751;SDS011;3413;47.680;9.166;2023-07-13T12:03:00;2.50;;;1.40;;
6751;SDS011;3413;47.680;9.166;2023-07-13T12:08:09;9.73;;;1.50;;
6751;SDS011;3413;47.680;9.166;2023-07-13T12:13:24;3.50;;;1.10;;
6751;SDS011;3413;47.680;9.166;2023-07-13T12:18:30;2.47;;;1.07;;
6751;SDS011;3413;47.680;9.166;2023-07-13T12:23:35;2.73;;;1.53;;
6751;SDS011;3413;47.680;9.166;2023-07-13T12:33:45;5.60;;;1.30;;
6751;SDS011;3413;47.680;9.166;2023-07-13T12:38:47;2.60;;;1.10;;
6751;SDS011;3413;47.680;9.166;2023-07-13T12:43:49;3.83;;;1.40;;
6751;SDS011;3413;47.680;9.166;2023-07-13T12:48:52;3.30;;;1.33;;
6751;SDS011;3413;47.680;9.166;2023-07-13T12:54:16;4.10;;;1.43;;
6751;SDS011;3413;47.680;9.166;2023-07-13T12:59:21;2.20;;;1.03;;
6751;SDS011;3413;47.680;9.166;2023-07-13T13:04:24;2.53;;;1.40;;
6751;SDS011;3413;47.680;9.166;2023-07-13T13:09:26;2.90;;;1.40;;
6751;SDS011;3413;47.680;9.166;2023-07-13T13:14:28;3.90;;;1.50;;
6751;SDS011;3413;47.680;9.166;2023-07-13T13:19:31;2.67;;;1.20;;
6751;SDS011;3413;47.680;9.166;2023-07-13T13:24:33;6.30;;;1.53;;
6751;SDS011;3413;47.680;9.166;2023-07-13T13:29:36;7.83;;;1.43;;
6751;SDS011;3413;47.680;9.166;2023-07-13T13:34:40;2.93;;;1.30;;
6751;SDS011;3413;47.680;9.166;2023-07-13T13:39:45;3.50;;;1.70;;
6751;SDS011;3413;47.680;9.166;2023-07-13T13:45:11;2.63;;;1.10;;
6751;SDS011;3413;47.680;9.166;2023-07-13T13:50:20;2.10;;;1.10;;
6751;SDS011;3413;47.680;9.166;2023-07-13T13:55:25;8.53;;;2.13;;
6751;SDS011;3413;47.680;9.166;2023-07-13T14:00:28;4.87;;;1.57;;
6751;SDS011;3413;47.680;9.166;2023-07-13T14:05:31;2.63;;;1.17;;
6751;SDS011;3413;47.680;9.166;2023-07-13T14:10:33;2.80;;;1.10;;
6751;SDS011;3413;47.680;9.166;2023-07-13T14:15:35;2.70;;;1.30;;
6751;SDS011;3413;47.680;9.166;2023-07-13T14:20:37;6.33;;;1.40;;
6751;SDS011;3413;47.680;9.166;2023-07-13T14:25:39;3.20;;;1.13;;
6751;SDS011;3413;47.680;9.166;2023-07-13T14:30:41;3.10;;;1.30;;
6751;SDS011;3413;47.680;9.166;2023-07-13T14:35:43;10.47;;;1.30;;
6751;SDS011;3413;47.680;9.166;2023-07-13T14:40:45;3.10;;;1.30;;
6751;SDS011;3413;47.680;9.166;2023-07-13T14:45:48;3.50;;;1.20;;
6751;SDS011;3413;47.680;9.166;2023-07-13T14:50:55;3.00;;;1.17;;
6751;SDS011;3413;47.680;9.166;2023-07-13T14:55:58;3.77;;;1.70;;
6751;SDS011;3413;47.680;9.166;2023-07-13T15:01:00;2.37;;;1.20;;
6751;SDS011;3413;47.680;9.166;2023-07-13T15:06:02;4.57;;;1.70;;
6751;SDS011;3413;47.680;9.166;2023-07-13T15:11:06;2.17;;;1.20;;
6751;SDS011;3413;47.680;9.166;2023-07-13T15:16:16;3.67;;;1.60;;
6751;SDS011;3413;47.680;9.166;2023-07-13T15:21:23;2.60;;;1.33;;
6751;SDS011;3413;47.680;9.166;2023-07-13T15:26:26;2.00;;;1.10;;
6751;SDS011;3413;47.680;9.166;2023-07-13T15:31:28;1.70;;;1.00;;
6751;SDS011;3413;47.680;9.166;2023-07-13T15:36:31;3.10;;;1.20;;
6751;SDS011;3413;47.680;9.166;2023-07-13T15:41:35;5.97;;;1.30;;
6751;SDS011;3413;47.680;9.166;2023-07-13T15:46:37;2.80;;;1.30;;
6751;SDS011;3413;47.680;9.166;2023-07-13T15:51:39;2.33;;;1.17;;
6751;SDS011;3413;47.680;9.166;2023-07-13T15:56:41;2.80;;;1.30;;
6751;SDS011;3413;47.680;9.166;2023-07-13T16:01:44;3.37;;;1.50;;
6751;SDS011;3413;47.680;9.166;2023-07-13T16:06:48;3.60;;;1.23;;
6751;SDS011;3413;47.680;9.166;2023-07-13T16:11:52;3.90;;;1.33;;
6751;SDS011;3413;47.680;9.166;2023-07-13T16:16:55;2.27;;;1.20;;
6751;SDS011;3413;47.680;9.166;2023-07-13T16:21:58;1.63;;;0.93;;
6751;SDS011;3413;47.680;9.166;2023-07-13T16:27:01;3.40;;;1.40;;
6751;SDS011;3413;47.680;9.166;2023-07-13T16:32:08;3.90;;;0.97;;
6751;SDS011;3413;47.680;9.166;2023-07-13T16:37:17;2.07;;;1.10;;
6751;SDS011;3413;47.680;9.166;2023-07-13T16:42:21;2.90;;;1.13;;
6751;SDS011;3413;47.680;9.166;2023-07-13T16:47:23;4.13;;;1.10;;
6751;SDS011;3413;47.680;9.166;2023-07-13T16:52:26;3.60;;;1.10;;
6751;SDS011;3413;47.680;9.166;2023-07-13T16:57:30;3.13;;;1.00;;
6751;SDS011;3413;47.680;9.166;2023-07-13T17:02:36;1.93;;;0.80;;
6751;SDS011;3413;47.680;9.166;2023-07-13T17:07:40;4.00;;;1.10;;
6751;SDS011;3413;47.680;9.166;2023-07-13T17:12:44;3.47;;;0.90;;
6751;SDS011;3413;47.680;9.166;2023-07-13T17:17:48;3.93;;;0.90;;
6751;SDS011;3413;47.680;9.166;2023-07-13T17:22:52;1.60;;;0.90;;
6751;SDS011;3413;47.680;9.166;2023-07-13T17:27:55;1.37;;;0.70;;
6751;SDS011;3413;47.680;9.166;2023-07-13T17:32:57;3.03;;;1.07;;
6751;SDS011;3413;47.680;9.166;2023-07-13T17:38:00;2.70;;;0.90;;
6751;SDS011;3413;47.680;9.166;2023-07-13T17:43:04;2.40;;;0.87;;
6751;SDS011;3413;47.680;9.166;2023-07-13T17:48:07;4.20;;;1.37;;
6751;SDS011;3413;47.680;9.166;2023-07-13T17:53:18;13.37;;;0.90;;
6751;SDS011;3413;47.680;9.166;2023-07-13T17:58:21;3.03;;;0.90;;
6751;SDS011;3413;47.680;9.166;2023-07-13T18:03:27;2.50;;;1.20;;
6751;SDS011;3413;47.680;9.166;2023-07-13T18:08:34;2.63;;;0.90;;
6751;SDS011;3413;47.680;9.166;2023-07-13T18:13:36;1.90;;;0.80;;
6751;SDS011;3413;47.680;9.166;2023-07-13T18:18:41;2.03;;;1.00;;
6751;SDS011;3413;47.680;9.166;2023-07-13T18:23:44;2.57;;;1.20;;
6751;SDS011;3413;47.680;9.166;2023-07-13T18:28:47;3.17;;;1.20;;
6751;SDS011;3413;47.680;9.166;2023-07-13T18:33:50;4.10;;;1.00;;
6751;SDS011;3413;47.680;9.166;2023-07-13T18:38:54;5.13;;;1.03;;
6751;SDS011;3413;47.680;9.166;2023-07-13T18:43:57;2.13;;;1.10;;
6751;SDS011;3413;47.680;9.166;2023-07-13T18:48:59;4.27;;;1.53;;
6751;SDS011;3413;47.680;9.166;2023-07-13T18:54:01;3.50;;;1.17;;
6751;SDS011;3413;47.680;9.166;2023-07-13T18:59:04;2.33;;;1.10;;
6751;SDS011;3413;47.680;9.166;2023-07-13T19:04:14;4.70;;;1.00;;
6751;SDS011;3413;47.680;9.166;2023-07-13T19:09:30;3.93;;;1.30;;
6751;SDS011;3413;47.680;9.166;2023-07-13T19:14:32;4.17;;;1.67;;
6751;SDS011;3413;47.680;9.166;2023-07-13T19:19:34;13.80;;;1.63;;
6751;SDS011;3413;47.680;9.166;2023-07-13T19:24:37;4.10;;;1.50;;
6751;SDS011;3413;47.680;9.166;2023-07-13T19:29:40;2.00;;;1.10;;
6751;SDS011;3413;47.680;9.166;2023-07-13T19:34:46;2.10;;;1.17;;
6751;SDS011;3413;47.680;9.166;2023-07-13T19:39:48;2.70;;;1.27;;
6751;SDS011;3413;47.680;9.166;2023-07-13T19:44:54;1.43;;;0.80;;
6751;SDS011;3413;47.680;9.166;2023-07-13T19:49:57;3.03;;;1.00;;
6751;SDS011;3413;47.680;9.166;2023-07-13T19:54:59;2.73;;;1.10;;
6751;SDS011;3413;47.680;9.166;2023-07-13T20:00:01;4.33;;;1.30;;
6751;SDS011;3413;47.680;9.166;2023-07-13T20:05:08;3.13;;;1.50;;
6751;SDS011;3413;47.680;9.166;2023-07-13T20:10:18;1.80;;;1.13;;
6751;SDS011;3413;47.680;9.166;2023-07-13T20:15:31;5.73;;;0.90;;
6751;SDS011;3413;47.680;9.166;2023-07-13T20:20:38;3.40;;;1.20;;
6751;SDS011;3413;47.680;9.166;2023-07-13T20:25:42;2.07;;;1.00;;
6751;SDS011;3413;47.680;9.166;2023-07-13T20:30:45;2.30;;;1.20;;
6751;SDS011;3413;47.680;9.166;2023-07-13T20:35:49;2.77;;;1.00;;
6751;SDS011;3413;47.680;9.166;2023-07-13T20:40:51;2.20;;;1.07;;
6751;SDS011;3413;47.680;9.166;2023-07-13T20:45:58;2.90;;;1.30;;
6751;SDS011;3413;47.680;9.166;2023-07-13T20:51:02;2.80;;;1.30;;
6751;SDS011;3413;47.680;9.166;2023-07-13T20:56:09;4.53;;;1.10;;
6751;SDS011;3413;47.680;9.166;2023-07-13T21:06:34;2.90;;;1.33;;
6751;SDS011;3413;47.680;9.166;2023-07-13T21:11:37;6.33;;;1.23;;
6751;SDS011;3413;47.680;9.166;2023-07-13T21:16:40;11.83;;;1.53;;
6751;SDS011;3413;47.680;9.166;2023-07-13T21:21:42;5.73;;;1.30;;
6751;SDS011;3413;47.680;9.166;2023-07-13T21:26:44;3.87;;;1.40;;
6751;SDS011;3413;47.680;9.166;2023-07-13T21:31:46;3.70;;;1.10;;
6751;SDS011;3413;47.680;9.166;2023-07-13T21:36:48;1.80;;;1.00;;
6751;SDS011;3413;47.680;9.166;2023-07-13T21:41:52;3.10;;;1.10;;
6751;SDS011;3413;47.680;9.166;2023-07-13T21:46:54;1.73;;;0.90;;
6751;SDS011;3413;47.680;9.166;2023-07-13T21:51:57;3.00;;;1.40;;
6751;SDS011;3413;47.680;9.166;2023-07-13T21:56:59;3.50;;;1.47;;
6751;SDS011;3413;47.680;9.166;2023-07-13T22:02:01;1.97;;;1.40;;
6751;SDS011;3413;47.680;9.166;2023-07-13T22:07:04;1.93;;;1.03;;
6751;SDS011;3413;47.680;9.166;2023-07-13T22:12:07;2.77;;;1.10;;
6751;SDS011;3413;47.680;9.166;2023-07-13T22:17:11;4.77;;;1.27;;
6751;SDS011;3413;47.680;9.166;2023-07-13T22:22:14;2.00;;;1.23;;
6751;SDS011;3413;47.680;9.166;2023-07-13T22:27:16;2.47;;;1.20;;
6751;SDS011;3413;47.680;9.166;2023-07-13T22:32:19;3.60;;;1.30;;
6751;SDS011;3413;47.680;9.166;2023-07-13T22:37:22;3.50;;;1.00;;
6751;SDS011;3413;47.680;9.166;2023-07-13T22:42:24;2.40;;;1.53;;
6751;SDS011;3413;47.680;9.166;2023-07-13T22:47:25;2.00;;;1.10;;
6751;SDS011;3413;47.680;9.166;2023-07-13T22:52:27;2.13;;;1.20;;
6751;SDS011;3413;47.680;9.166;2023-07-13T22:57:29;4.00;;;1.13;;
6751;SDS011;3413;47.680;9.166;2023-07-13T23:02:31;1.87;;;1.07;;
6751;SDS011;3413;47.680;9.166;2023-07-13T23:07:33;2.60;;;1.40;;
6751;SDS011;3413;47.680;9.166;2023-07-13T23:12:35;3.57;;;1.00;;
6751;SDS011;3413;47.680;9.166;2023-07-13T23:17:38;1.87;;;1.00;;
6751;SDS011;3413;47.680;9.166;2023-07-13T23:22:41;6.23;;;1.13;;
6751;SDS011;3413;47.680;9.166;2023-07-13T23:27:43;8.03;;;2.17;;
6751;SDS011;3413;47.680;9.166;2023-07-13T23:32:45;4.53;;;1.50;;
6751;SDS011;3413;47.680;9.166;2023-07-13T23:37:49;4.10;;;1.40;;
6751;SDS011;3413;47.680;9.166;2023-07-13T23:42:51;3.70;;;1.30;;
6751;SDS011;3413;47.680;9.166;2023-07-13T23:47:54;2.30;;;1.13;;
6751;SDS011;3413;47.680;9.166;2023-07-13T23:52:58;16.03;;;1.67;;
6751;SDS011;3413;47.680;9.166;2023-07-13T23:58:01;4.57;;;1.20;;
